| time (UTC) | temp C | wind direction | speed KPH | gust KPH | rain 1hr cm | rain 24hr cm | rain mn cm | humidity % | barometer mb |
| 20260507013326 | 16 | 149 | 3.2 | 4.8 | 0.00 | 0.00 | 0.00 | 60 | 1015.6 |
| 20260507011829 | 16 | 145 | 3.2 | 4.8 | 0.00 | 0.00 | 0.00 | 58 | 1015.4 |
| 20260507010325 | 16 | 151 | 0.0 | 3.2 | 0.00 | 0.00 | 0.00 | 57 | 1015.1 |
| 20260507004826 | 16 | 155 | 3.2 | 3.2 | 0.00 | 0.00 | 0.00 | 58 | 1015.2 |
| 20260507001931 | 16 | 155 | 0.0 | 0.0 | 0.00 | 0.00 | 0.00 | 59 | 1014.9 |
| 20260507000328 | 16 | 154 | 0.0 | 0.0 | 0.00 | 0.00 | 0.00 | 59 | 1015.2 |
| 20260506234826 | 16 | 155 | 0.0 | 0.0 | 0.00 | 0.00 | 0.00 | 59 | 1015.5 |
| 20260506231823 | 16 | 149 | 0.0 | 0.0 | 0.00 | 0.00 | 0.00 | 57 | 1015.8 |
| 20260506230324 | 17 | 149 | 0.0 | 0.0 | 0.00 | 0.00 | 0.00 | 56 | 1015.9 |
| 20260506224826 | 17 | 149 | 0.0 | 0.0 | 0.00 | 0.00 | 0.00 | 55 | 1015.9 |
| 20260506223327 | 17 | 175 | 0.0 | 0.0 | 0.00 | 0.00 | 0.00 | 55 | 1016.0 |
| 20260506221823 | 17 | 166 | 0.0 | 0.0 | 0.00 | 0.00 | 0.00 | 56 | 1016.1 |
| 20260506220327 | 17 | 166 | 0.0 | 0.0 | 0.00 | 0.00 | 0.00 | 56 | 1015.9 |
| 20260506214827 | 17 | 165 | 0.0 | 0.0 | 0.00 | 0.00 | 0.00 | 55 | 1016.0 |
| 20260506213324 | 17 | 154 | 0.0 | 0.0 | 0.00 | 0.00 | 0.00 | 55 | 1016.2 |
| 20260506211823 | 17 | 147 | 0.0 | 0.0 | 0.00 | 0.00 | 0.00 | 53 | 1016.4 |
| 20260506204823 | 18 | 148 | 0.0 | 0.0 | 0.00 | 0.00 | 0.00 | 52 | 1016.5 |
| 20260506203326 | 18 | 149 | 0.0 | 0.0 | 0.00 | 0.00 | 0.00 | 51 | 1016.6 |
| 20260506200312 | 18 | 147 | 0.0 | 0.0 | 0.00 | 0.00 | 0.00 | 50 | 1016.3 |
| 20260506194822 | 19 | 144 | 0.0 | 0.0 | 0.00 | 0.00 | 0.00 | 49 | 1016.3 |
| 20260506193307 | 19 | 11 | 0.0 | 0.0 | 0.00 | 0.00 | 0.00 | 47 | 1016.1 |
| 20260506191806 | 20 | 75 | 0.0 | 0.0 | 0.00 | 0.00 | 0.00 | 47 | 1015.8 |
| 20260506184808 | 19 | 183 | 0.0 | 3.2 | 0.00 | 0.00 | 0.00 | 47 | 1015.7 |
| 20260506183305 | 20 | 140 | 3.2 | 3.2 | 0.00 | 0.00 | 0.00 | 47 | 1015.5 |
| 20260506181806 | 20 | 171 | 0.0 | 4.8 | 0.00 | 0.00 | 0.00 | 46 | 1015.3 |
| 20260506180303 | 20 | 162 | 0.0 | 4.8 | 0.00 | 0.00 | 0.00 | 44 | 1015.2 |
| 20260506174802 | 21 | 144 | 1.6 | 4.8 | 0.00 | 0.00 | 0.00 | 44 | 1015.2 |
| 20260506173304 | 21 | 164 | 1.6 | 4.8 | 0.00 | 0.00 | 0.00 | 40 | 1015.0 |
| 20260506171803 | 21 | 209 | 1.6 | 8.0 | 0.00 | 0.00 | 0.00 | 39 | 1014.9 |
| 20260506170303 | 22 | 219 | 0.0 | 8.0 | 0.00 | 0.00 | 0.00 | 39 | 1014.8 |
| 20260506164810 | 22 | 299 | 3.2 | 17.7 | 0.00 | 0.00 | 0.00 | 39 | 1014.7 |
| 20260506163326 | 22 | 241 | 3.2 | 14.5 | 0.00 | 0.00 | 0.00 | 38 | 1014.8 |
| 20260506161803 | 22 | 244 | 1.6 | 9.7 | 0.00 | 0.00 | 0.00 | 37 | 1014.6 |
| 20260506160310 | 22 | 213 | 4.8 | 19.3 | 0.00 | 0.00 | 0.00 | 37 | 1014.6 |
| 20260506154804 | 23 | 183 | 1.6 | 9.7 | 0.00 | 0.00 | 0.00 | 37 | 1014.7 |
| 20260506153303 | 23 | 224 | 4.8 | 14.5 | 0.00 | 0.00 | 0.00 | 37 | 1014.8 |
| 20260506151803 | 23 | 197 | 6.4 | 14.5 | 0.00 | 0.00 | 0.00 | 38 | 1014.9 |
| 20260506150304 | 23 | 220 | 3.2 | 19.3 | 0.00 | 0.00 | 0.00 | 39 | 1014.9 |
| 20260506144806 | 23 | 220 | 6.4 | 20.9 | 0.00 | 0.00 | 0.00 | 41 | 1014.9 |
| 20260506143303 | 23 | 140 | 4.8 | 17.7 | 0.00 | 0.00 | 0.00 | 40 | 1014.9 |
| 20260506141802 | 23 | 121 | 3.2 | 11.3 | 0.00 | 0.00 | 0.00 | 41 | 1014.9 |
| 20260506140303 | 24 | 279 | 4.8 | 14.5 | 0.00 | 0.00 | 0.00 | 41 | 1014.9 |
| 20260506133302 | 24 | 247 | 3.2 | 16.1 | 0.00 | 0.00 | 0.00 | 41 | 1015.1 |
| 20260506130303 | 24 | 292 | 3.2 | 14.5 | 0.00 | 0.00 | 0.00 | 39 | 1015.0 |
| 20260506124807 | 24 | 302 | 4.8 | 14.5 | 0.00 | 0.00 | 0.00 | 40 | 1015.1 |
| 20260506123306 | 25 | 142 | 3.2 | 16.1 | 0.00 | 0.00 | 0.00 | 38 | 1015.2 |
| 20260506120309 | 25 | 234 | 6.4 | 16.1 | 0.00 | 0.00 | 0.00 | 37 | 1015.4 |
| 20260506114810 | 25 | 228 | 3.2 | 11.3 | 0.00 | 0.00 | 0.00 | 35 | 1015.5 |
| 20260506111822 | 25 | 203 | 4.8 | 11.3 | 0.00 | 0.00 | 0.00 | 39 | 1015.7 |
| 20260506104809 | 24 | 192 | 6.4 | 14.5 | 0.00 | 0.00 | 0.00 | 42 | 1015.8 |
| 20260506103307 | 24 | 203 | 3.2 | 8.0 | 0.00 | 0.00 | 0.00 | 40 | 1015.7 |
| 20260506101811 | 24 | 257 | 1.6 | 11.3 | 0.00 | 0.00 | 0.00 | 40 | 1015.9 |
| 20260506094809 | 23 | 221 | 3.2 | 11.3 | 0.00 | 0.00 | 0.00 | 42 | 1015.9 |
| 20260506093309 | 23 | 243 | 3.2 | 11.3 | 0.00 | 0.00 | 0.00 | 42 | 1015.9 |
| 20260506090308 | 23 | 185 | 3.2 | 6.4 | 0.00 | 0.00 | 0.00 | 43 | 1016.0 |
| 20260506084808 | 23 | 224 | 1.6 | 8.0 | 0.00 | 0.00 | 0.00 | 45 | 1015.8 |
| 20260506083306 | 23 | 217 | 1.6 | 6.4 | 0.00 | 0.00 | 0.00 | 45 | 1015.8 |
| 20260506081812 | 22 | 244 | 1.6 | 8.0 | 0.00 | 0.00 | 0.00 | 43 | 1015.8 |
| 20260506080301 | 22 | 219 | 1.6 | 6.4 | 0.00 | 0.00 | 0.00 | 45 | 1015.8 |
| 20260506073305 | 22 | 245 | 1.6 | 6.4 | 0.00 | 0.00 | 0.00 | 46 | 1015.5 |
| 20260506071806 | 22 | 207 | 1.6 | 4.8 | 0.00 | 0.00 | 0.00 | 46 | 1015.4 |
| 20260506061804 | 20 | 157 | 0.0 | 0.0 | 0.00 | 0.00 | 0.00 | 44 | 1015.4 |
| 20260506050255 | 17 | 20 | 0.0 | 0.0 | 0.00 | 0.00 | 0.00 | 58 | 1015.0 |
| 20260506044757 | 16 | 152 | 0.0 | 0.0 | 0.00 | 0.00 | 0.00 | 60 | 1014.9 |
| 20260506043300 | 15 | 161 | 0.0 | 0.0 | 0.00 | 0.00 | 0.00 | 62 | 1014.9 |
| 20260506041802 | 15 | 148 | 0.0 | 0.0 | 0.00 | 0.00 | 0.00 | 63 | 1014.9 |
| 20260506040254 | 15 | 90 | 0.0 | 0.0 | 0.00 | 0.00 | 0.00 | 63 | 1014.8 |
| 20260506034801 | 15 | 141 | 0.0 | 0.0 | 0.00 | 0.00 | 0.00 | 63 | 1014.6 |
| 20260506033300 | 15 | 131 | 0.0 | 0.0 | 0.00 | 0.00 | 0.00 | 62 | 1014.5 |
| 20260506031755 | 15 | 127 | 0.0 | 0.0 | 0.00 | 0.00 | 0.00 | 63 | 1014.4 |
| 20260506030259 | 15 | 161 | 0.0 | 1.6 | 0.00 | 0.00 | 0.00 | 63 | 1014.3 |
| 20260506024805 | 15 | 166 | 1.6 | 3.2 | 0.00 | 0.00 | 0.00 | 63 | 1014.3 |
| 20260506023258 | 15 | 161 | 0.0 | 3.2 | 0.00 | 0.00 | 0.00 | 64 | 1014.4 |
| 20260506021800 | 15 | 158 | 1.6 | 3.2 | 0.00 | 0.00 | 0.00 | 64 | 1014.5 |